createdAt,value
2018-10-02T00:01:06.551Z,10.30
2018-10-02T00:03:09.642Z,10.30
2018-10-02T00:05:12.561Z,10.20
2018-10-02T00:07:15.594Z,10.20
2018-10-02T00:09:19.304Z,10.20
2018-10-02T00:11:22.231Z,10.20
2018-10-02T00:13:44.625Z,10.10
2018-10-02T00:15:47.810Z,10.10
2018-10-02T00:17:51.487Z,10.10
2018-10-02T00:19:54.485Z,10.00
2018-10-02T00:21:58.193Z,10.00
2018-10-02T00:24:01.174Z,10.00
2018-10-02T00:26:04.849Z,9.90
2018-10-02T00:28:08.797Z,9.90
2018-10-02T00:30:11.713Z,9.90
2018-10-02T00:32:15.394Z,9.90
2018-10-02T00:34:18.941Z,9.80
2018-10-02T00:36:22.622Z,9.80
2018-10-02T00:38:25.634Z,9.80
2018-10-02T00:40:29.435Z,9.70
2018-10-02T00:42:32.412Z,9.70
2018-10-02T00:44:36.819Z,9.60
2018-10-02T00:46:39.761Z,9.60
2018-10-02T00:48:42.676Z,9.60
2018-10-02T00:50:46.368Z,9.50
2018-10-02T00:52:49.317Z,9.50
2018-10-02T00:54:52.250Z,9.50
2018-10-02T00:56:55.925Z,9.50
2018-10-02T00:58:58.949Z,9.50
2018-10-02T01:01:02.616Z,9.50
2018-10-02T01:03:05.628Z,9.50
2018-10-02T01:05:09.589Z,9.50
2018-10-02T01:07:12.510Z,9.50
2018-10-02T01:09:16.184Z,9.50
2018-10-02T01:11:19.149Z,9.50
2018-10-02T01:13:22.013Z,9.50
2018-10-02T01:15:25.196Z,9.50
2018-10-02T01:17:28.114Z,9.50
2018-10-02T01:19:30.976Z,9.50
2018-10-02T01:21:33.837Z,9.50
2018-10-02T01:23:36.753Z,9.50
2018-10-02T01:25:40.233Z,9.50
2018-10-02T01:27:43.109Z,9.50
2018-10-02T01:29:46.217Z,9.50
2018-10-02T01:31:49.913Z,9.40
2018-10-02T01:33:52.800Z,9.40
2018-10-02T01:35:56.512Z,9.40
2018-10-02T01:38:00.761Z,9.40
2018-10-02T01:40:03.685Z,9.40
2018-10-02T01:42:08.229Z,9.40
2018-10-02T01:44:11.873Z,9.40
2018-10-02T01:46:15.368Z,9.40
2018-10-02T01:48:18.380Z,9.40
2018-10-02T01:50:21.265Z,9.30
2018-10-02T01:52:24.136Z,9.30
2018-10-02T01:54:27.224Z,9.30
2018-10-02T01:56:31.791Z,9.30
2018-10-02T01:58:34.682Z,9.30
2018-10-02T02:00:37.581Z,9.30
2018-10-02T02:02:40.624Z,9.30
2018-10-02T02:04:44.292Z,9.20
2018-10-02T02:06:47.273Z,9.20
2018-10-02T02:08:50.179Z,9.20
2018-10-02T02:10:53.042Z,9.20
2018-10-02T02:12:55.954Z,9.20
2018-10-02T02:14:59.451Z,9.20
2018-10-02T02:17:03.101Z,9.20
2018-10-02T02:19:06.087Z,9.20
2018-10-02T02:21:08.985Z,9.20
2018-10-02T02:23:13.062Z,9.20
2018-10-02T02:25:15.957Z,9.20
2018-10-02T02:27:18.849Z,9.20
2018-10-02T02:29:22.493Z,9.10
2018-10-02T02:31:25.533Z,9.10
2018-10-02T02:33:29.189Z,9.10
2018-10-02T02:35:32.074Z,9.10
2018-10-02T02:37:35.910Z,9.10
2018-10-02T02:39:38.794Z,9.10
2018-10-02T02:41:41.665Z,9.10
2018-10-02T02:43:44.580Z,9.00
2018-10-02T02:45:48.213Z,9.00
2018-10-02T02:47:51.085Z,9.00
2018-10-02T02:50:09.793Z,9.00
2018-10-02T02:52:13.798Z,9.10
2018-10-02T02:54:16.673Z,9.00
2018-10-02T02:56:19.569Z,9.00
2018-10-02T02:58:23.215Z,9.00
2018-10-02T03:00:26.081Z,9.00
2018-10-02T03:02:29.836Z,9.00
2018-10-02T03:04:32.713Z,9.00
2018-10-02T03:06:35.708Z,9.00
2018-10-02T03:08:40.123Z,9.00
2018-10-02T03:10:42.982Z,9.00
2018-10-02T03:12:45.929Z,9.00
2018-10-02T03:14:48.927Z,9.00
2018-10-02T03:16:52.021Z,9.00
2018-10-02T03:18:54.881Z,9.00
2018-10-02T03:20:57.851Z,9.00
2018-10-02T03:23:01.487Z,8.90
2018-10-02T03:25:04.369Z,8.90
2018-10-02T03:27:07.271Z,8.90
2018-10-02T03:29:10.134Z,8.90
2018-10-02T03:31:13.009Z,8.90
2018-10-02T03:33:15.925Z,8.90
2018-10-02T03:35:19.582Z,8.80
2018-10-02T03:37:22.468Z,8.80
2018-10-02T03:39:25.421Z,8.80
2018-10-02T03:41:28.233Z,8.80
2018-10-02T03:43:31.112Z,8.80
2018-10-02T03:45:34.013Z,8.80
2018-10-02T03:47:38.385Z,8.80
2018-10-02T03:49:41.288Z,8.80
2018-10-02T03:51:44.657Z,8.80
2018-10-02T03:53:47.540Z,8.80
2018-10-02T03:55:50.421Z,8.70
2018-10-02T03:57:53.621Z,8.70
2018-10-02T03:59:56.529Z,8.70
2018-10-02T04:01:59.401Z,8.70
2018-10-02T04:04:02.329Z,8.70
2018-10-02T04:06:05.215Z,8.70
2018-10-02T04:08:08.093Z,8.70
2018-10-02T04:10:11.136Z,8.70
2018-10-02T04:12:14.029Z,8.70
2018-10-02T04:14:16.898Z,8.70
2018-10-02T04:16:19.785Z,8.70
2018-10-02T04:18:22.676Z,8.70
2018-10-02T04:20:26.326Z,8.70
2018-10-02T04:22:29.354Z,8.70
2018-10-02T04:24:32.224Z,8.70
2018-10-02T04:26:36.627Z,8.70
2018-10-02T04:28:40.041Z,8.70
2018-10-02T04:30:42.949Z,8.80
2018-10-02T04:32:46.601Z,8.80
2018-10-02T04:34:49.596Z,8.80
2018-10-02T04:36:52.476Z,8.80
2018-10-02T04:38:55.355Z,8.80
2018-10-02T04:40:58.454Z,8.90
2018-10-02T04:43:01.849Z,8.90
2018-10-02T04:45:05.343Z,8.90
2018-10-02T04:47:08.246Z,9.00
2018-10-02T04:49:11.912Z,9.00
2018-10-02T04:51:14.788Z,9.00
2018-10-02T04:53:17.672Z,9.00
2018-10-02T04:55:20.551Z,9.10
2018-10-02T04:57:23.689Z,9.10
2018-10-02T04:59:27.158Z,9.10
2018-10-02T05:01:30.821Z,9.20
2018-10-02T05:03:33.721Z,9.20
2018-10-02T05:05:36.801Z,9.20
2018-10-02T05:07:39.727Z,9.30
2018-10-02T05:09:43.392Z,9.30
2018-10-02T05:11:47.193Z,9.30
2018-10-02T05:13:51.586Z,9.40
2018-10-02T05:15:54.501Z,9.40
2018-10-02T05:17:57.413Z,9.40
2018-10-02T05:20:00.290Z,9.40
2018-10-02T05:22:03.177Z,9.50
2018-10-02T05:24:06.079Z,9.50
2018-10-02T05:26:08.969Z,9.50
2018-10-02T05:28:11.856Z,9.60
2018-10-02T05:30:14.960Z,9.60
2018-10-02T05:32:18.827Z,9.60
2018-10-02T05:34:21.726Z,9.60
2018-10-02T05:36:24.743Z,9.70
2018-10-02T05:38:28.357Z,9.70
2018-10-02T05:40:31.990Z,9.70
2018-10-02T05:42:35.186Z,9.70
2018-10-02T05:44:38.053Z,9.70
2018-10-02T05:46:40.972Z,9.80
2018-10-02T05:48:43.995Z,9.80
2018-10-02T05:50:47.686Z,9.80
2018-10-02T05:52:51.513Z,9.80
2018-10-02T05:54:54.564Z,9.80
2018-10-02T05:56:57.426Z,9.90
2018-10-02T05:59:00.308Z,9.90
2018-10-02T06:01:03.214Z,9.90
2018-10-02T06:03:06.173Z,9.90
2018-10-02T06:05:09.090Z,9.90
2018-10-02T06:07:12.008Z,10.00
2018-10-02T06:09:14.886Z,10.00
2018-10-02T06:11:18.060Z,10.00
2018-10-02T06:13:21.454Z,10.10
2018-10-02T06:15:24.722Z,10.10
2018-10-02T06:17:28.332Z,10.10
2018-10-02T06:19:31.768Z,10.10
2018-10-02T06:21:34.911Z,10.20
2018-10-02T06:23:37.916Z,10.20
2018-10-02T06:25:42.609Z,10.20
2018-10-02T06:27:46.654Z,10.20
2018-10-02T06:29:50.626Z,10.20
2018-10-02T06:31:53.759Z,10.30
2018-10-02T06:33:56.805Z,10.30
2018-10-02T06:35:59.819Z,10.30
2018-10-02T06:38:03.561Z,10.30
2018-10-02T06:40:07.332Z,10.40
2018-10-02T06:42:10.307Z,10.40
2018-10-02T06:44:14.024Z,10.40
2018-10-02T06:46:17.136Z,10.40
2018-10-02T06:48:20.555Z,10.50
2018-10-02T06:50:23.670Z,10.50
2018-10-02T06:52:26.764Z,10.50
2018-10-02T06:54:29.695Z,10.50
2018-10-02T06:56:33.557Z,10.60
2018-10-02T06:58:37.197Z,10.60
2018-10-02T07:00:41.357Z,10.60
2018-10-02T07:02:46.061Z,10.70
2018-10-02T07:04:49.156Z,10.70
2018-10-02T07:06:52.414Z,10.70
2018-10-02T07:08:55.675Z,10.70
2018-10-02T07:10:59.032Z,10.70
2018-10-02T07:13:01.924Z,10.70
2018-10-02T07:15:04.866Z,10.70
2018-10-02T07:17:08.477Z,10.80
2018-10-02T07:19:11.366Z,10.80
2018-10-02T07:21:15.113Z,10.80
2018-10-02T07:23:18.781Z,10.90
2018-10-02T07:25:21.672Z,10.80
2018-10-02T07:27:25.933Z,10.90
2018-10-02T07:29:29.450Z,10.90
2018-10-02T07:31:32.337Z,10.90
2018-10-02T07:33:35.342Z,10.90
2018-10-02T07:35:38.237Z,10.90
2018-10-02T07:37:41.894Z,11.00
2018-10-02T07:39:44.793Z,11.00
2018-10-02T07:41:47.702Z,11.00
2018-10-02T07:43:50.564Z,11.10
2018-10-02T07:45:54.301Z,11.10
2018-10-02T07:47:57.193Z,11.10
2018-10-02T07:50:00.821Z,11.20
2018-10-02T07:52:03.730Z,11.20
2018-10-02T07:54:07.421Z,11.20
2018-10-02T07:56:10.343Z,11.20
2018-10-02T07:58:14.000Z,11.30
2018-10-02T08:00:17.685Z,11.30
2018-10-02T08:02:21.139Z,11.30
2018-10-02T08:04:25.721Z,11.30
2018-10-02T08:06:29.297Z,11.30
2018-10-02T08:08:32.213Z,11.30
2018-10-02T08:10:35.219Z,11.30
2018-10-02T08:12:38.849Z,11.30
2018-10-02T08:14:41.802Z,11.40
2018-10-02T08:16:44.685Z,11.40
2018-10-02T08:18:47.666Z,11.40
2018-10-02T08:20:51.351Z,11.40
2018-10-02T08:22:54.205Z,11.40
2018-10-02T08:24:57.089Z,11.40
2018-10-02T08:26:59.986Z,11.50
2018-10-02T08:29:03.054Z,11.50
2018-10-02T08:31:05.942Z,11.60
2018-10-02T08:33:09.691Z,11.60
2018-10-02T08:35:12.589Z,11.60
2018-10-02T08:37:16.200Z,11.60
2018-10-02T08:39:19.094Z,11.60
2018-10-02T08:41:22.128Z,11.60
2018-10-02T08:43:25.049Z,11.70
2018-10-02T08:45:28.646Z,11.70
2018-10-02T08:47:32.433Z,11.70
2018-10-02T08:49:35.480Z,11.70
2018-10-02T08:51:39.870Z,11.70
2018-10-02T08:53:43.105Z,11.70
2018-10-02T08:55:45.933Z,11.80
2018-10-02T08:57:50.340Z,11.90
2018-10-02T08:59:53.238Z,11.90
2018-10-02T09:01:56.629Z,11.90
2018-10-02T09:04:00.291Z,12.20
2018-10-02T09:06:03.189Z,12.20
2018-10-02T09:08:06.085Z,12.30
2018-10-02T09:10:08.942Z,12.30
2018-10-02T09:12:11.849Z,12.30
2018-10-02T09:14:15.570Z,12.40
2018-10-02T09:16:19.983Z,12.30
2018-10-02T09:18:22.901Z,12.40
2018-10-02T09:20:26.663Z,12.40
2018-10-02T09:22:29.513Z,12.30
2018-10-02T09:24:32.540Z,12.30
2018-10-02T09:26:35.972Z,12.30
2018-10-02T09:28:38.903Z,12.30
2018-10-02T09:30:59.402Z,12.30
2018-10-02T09:33:08.603Z,12.20
2018-10-02T09:35:31.406Z,12.20
2018-10-02T09:37:49.198Z,12.20
2018-10-02T09:40:09.350Z,12.20
2018-10-02T09:42:17.950Z,12.10
2018-10-02T09:44:21.274Z,12.20
2018-10-02T09:46:24.158Z,12.20
2018-10-02T09:48:27.096Z,12.10
2018-10-02T09:50:30.017Z,12.20
2018-10-02T09:52:32.882Z,12.20
2018-10-02T09:54:35.828Z,12.20
2018-10-02T09:56:38.731Z,12.20
2018-10-02T09:58:42.410Z,12.20
2018-10-02T10:00:45.231Z,12.20
2018-10-02T10:02:48.168Z,12.20
2018-10-02T10:04:51.010Z,12.20
2018-10-02T10:06:53.890Z,12.20
2018-10-02T10:08:58.298Z,12.30
2018-10-02T10:11:01.222Z,12.30
2018-10-02T10:13:04.849Z,12.30
2018-10-02T10:15:07.733Z,12.30
2018-10-02T10:17:10.663Z,12.30
2018-10-02T10:19:13.501Z,12.30
2018-10-02T10:21:16.644Z,12.30
2018-10-02T10:23:20.309Z,12.30
2018-10-02T10:25:23.977Z,12.30
2018-10-02T10:27:26.894Z,12.30
2018-10-02T10:29:29.776Z,12.30
2018-10-02T10:31:32.786Z,12.30
2018-10-02T10:33:37.461Z,12.40
2018-10-02T10:35:41.076Z,12.40
2018-10-02T10:37:43.973Z,12.40
2018-10-02T10:39:47.640Z,12.40
2018-10-02T10:41:50.929Z,12.40
2018-10-02T10:43:53.843Z,12.40
2018-10-02T10:45:57.513Z,12.50
2018-10-02T10:48:00.388Z,12.50
2018-10-02T10:50:03.295Z,12.50
2018-10-02T10:52:06.167Z,12.50
2018-10-02T10:54:09.044Z,12.50
2018-10-02T10:56:11.937Z,12.50
2018-10-02T10:58:14.818Z,12.50
2018-10-02T11:00:18.467Z,12.50
2018-10-02T11:02:21.381Z,12.50
2018-10-02T11:04:24.295Z,12.50
2018-10-02T11:06:27.184Z,12.50
2018-10-02T11:08:30.828Z,12.50
2018-10-02T11:10:33.709Z,12.50
2018-10-02T11:12:36.714Z,12.50
2018-10-02T11:14:39.649Z,12.50
2018-10-02T11:16:42.533Z,12.50
2018-10-02T11:18:45.472Z,12.50
2018-10-02T11:20:48.306Z,12.50
2018-10-02T11:22:52.001Z,12.50
2018-10-02T11:24:54.918Z,12.50
2018-10-02T11:26:57.793Z,12.50
2018-10-02T11:29:00.692Z,12.60
2018-10-02T11:31:04.428Z,12.60
2018-10-02T11:33:07.268Z,12.50
2018-10-02T11:35:12.448Z,12.50
2018-10-02T11:37:15.405Z,12.50
2018-10-02T11:39:18.241Z,12.50
2018-10-02T11:41:21.145Z,12.60
2018-10-02T11:43:24.815Z,12.60
2018-10-02T11:45:29.748Z,12.60
2018-10-02T11:47:32.853Z,12.60
2018-10-02T11:49:36.563Z,12.60
2018-10-02T11:51:39.397Z,12.60
2018-10-02T11:53:42.589Z,12.60
2018-10-02T11:55:45.574Z,12.60
2018-10-02T11:57:49.025Z,12.60
2018-10-02T11:59:53.625Z,12.60
2018-10-02T12:01:58.062Z,12.60
2018-10-02T12:04:01.010Z,12.60
2018-10-02T12:06:04.102Z,12.60
2018-10-02T12:08:06.990Z,12.60
2018-10-02T12:10:10.962Z,12.50
2018-10-02T12:12:13.972Z,12.50
2018-10-02T12:14:17.018Z,12.50
2018-10-02T12:16:19.742Z,12.50
2018-10-02T12:18:22.744Z,12.40
2018-10-02T12:20:26.373Z,12.40
2018-10-02T12:22:29.257Z,12.40
2018-10-02T12:24:32.293Z,12.40
2018-10-02T12:26:35.158Z,12.40
2018-10-02T12:28:38.061Z,12.40
2018-10-02T12:30:42.360Z,12.30
2018-10-02T12:32:45.229Z,12.30
2018-10-02T12:34:48.117Z,12.30
2018-10-02T12:36:51.043Z,12.30
2018-10-02T12:38:54.041Z,12.30
2018-10-02T12:40:56.869Z,12.30
2018-10-02T12:43:01.282Z,12.20
2018-10-02T12:45:04.165Z,12.20
2018-10-02T12:47:07.128Z,12.20
2018-10-02T12:49:10.017Z,12.20
2018-10-02T12:51:15.023Z,12.20
2018-10-02T12:53:17.946Z,12.20
2018-10-02T12:55:20.918Z,12.20
2018-10-02T12:57:23.791Z,12.20
2018-10-02T12:59:26.705Z,12.20
2018-10-02T13:01:29.594Z,12.20
2018-10-02T13:03:32.485Z,12.20
2018-10-02T13:05:35.355Z,12.10
2018-10-02T13:07:39.034Z,12.10
2018-10-02T13:09:42.685Z,12.10
2018-10-02T13:11:45.561Z,12.10
2018-10-02T13:13:48.461Z,12.10
2018-10-02T13:15:51.360Z,12.10
2018-10-02T13:17:54.232Z,12.10
2018-10-02T13:19:57.210Z,12.10
2018-10-02T13:22:00.163Z,12.10
2018-10-02T13:24:03.043Z,12.10
2018-10-02T13:26:05.950Z,12.10
2018-10-02T13:28:08.853Z,12.00
2018-10-02T13:30:11.832Z,12.00
2018-10-02T13:32:16.414Z,12.00
2018-10-02T13:34:19.237Z,12.00
2018-10-02T13:36:22.214Z,12.00
2018-10-02T13:38:26.669Z,12.00
2018-10-02T13:40:29.624Z,12.00
2018-10-02T13:42:32.636Z,12.00
2018-10-02T13:44:35.590Z,12.00
2018-10-02T13:46:38.501Z,12.00
2018-10-02T13:48:42.137Z,12.00
2018-10-02T13:50:45.107Z,12.00
2018-10-02T13:52:48.152Z,12.00
2018-10-02T13:54:51.802Z,12.00
2018-10-02T13:56:54.909Z,11.90
2018-10-02T13:58:57.790Z,12.00
2018-10-02T14:01:00.678Z,12.00
2018-10-02T14:03:03.790Z,12.00
2018-10-02T14:05:07.436Z,11.90
2018-10-02T14:07:10.465Z,11.90
2018-10-02T14:09:14.368Z,11.90
2018-10-02T14:11:17.232Z,11.90
2018-10-02T14:13:21.684Z,11.90
2018-10-02T14:15:25.534Z,11.90
2018-10-02T14:17:28.421Z,11.90
2018-10-02T14:19:31.299Z,11.90
2018-10-02T14:21:34.460Z,11.90
2018-10-02T14:23:37.281Z,11.90
2018-10-02T14:25:42.393Z,11.80
2018-10-02T14:27:45.414Z,11.90
2018-10-02T14:29:48.285Z,11.90
2018-10-02T14:31:51.934Z,11.90
2018-10-02T14:33:54.996Z,11.90
2018-10-02T14:35:58.625Z,11.90
2018-10-02T14:38:01.497Z,11.80
2018-10-02T14:40:04.402Z,11.80
2018-10-02T14:42:07.898Z,11.90
2018-10-02T14:44:10.786Z,11.90
2018-10-02T14:46:13.817Z,11.90
2018-10-02T14:48:18.183Z,11.90
2018-10-02T14:50:21.057Z,11.90
2018-10-02T14:52:23.954Z,11.90
2018-10-02T14:54:26.831Z,11.90
2018-10-02T14:56:29.781Z,11.90
2018-10-02T14:58:33.166Z,11.90
2018-10-02T15:00:36.050Z,11.90
2018-10-02T15:02:38.934Z,11.90
2018-10-02T15:04:42.133Z,11.90
2018-10-02T15:06:45.002Z,11.90
2018-10-02T15:08:47.898Z,11.90
2018-10-02T15:10:50.901Z,11.90
2018-10-02T15:12:53.793Z,11.90
2018-10-02T15:14:56.689Z,11.90
2018-10-02T15:17:00.360Z,11.90
2018-10-02T15:19:03.232Z,11.90
2018-10-02T15:21:06.558Z,11.90
2018-10-02T15:23:10.261Z,12.00
2018-10-02T15:25:13.897Z,12.00
2018-10-02T15:27:16.801Z,11.90
2018-10-02T15:29:20.484Z,11.90
2018-10-02T15:31:23.533Z,12.00
2018-10-02T15:33:26.386Z,12.00
2018-10-02T15:35:29.365Z,12.00
2018-10-02T15:37:32.357Z,12.00
2018-10-02T15:39:35.169Z,12.00
2018-10-02T15:41:38.549Z,12.00
2018-10-02T15:43:42.340Z,12.00
2018-10-02T15:45:46.184Z,12.00
2018-10-02T15:47:49.101Z,12.00
2018-10-02T15:49:51.984Z,12.00
2018-10-02T15:51:54.849Z,12.00
2018-10-02T15:53:57.751Z,12.00
2018-10-02T15:56:00.625Z,12.10
2018-10-02T15:58:03.518Z,12.00
2018-10-02T16:00:06.417Z,12.00
2018-10-02T16:02:10.813Z,12.00
2018-10-02T16:04:13.682Z,12.00
2018-10-02T16:06:16.578Z,12.10
2018-10-02T16:08:20.537Z,12.10
2018-10-02T16:10:23.418Z,12.10
2018-10-02T16:12:26.322Z,12.10
2018-10-02T16:14:29.321Z,12.10
2018-10-02T16:16:32.238Z,12.10
2018-10-02T16:18:36.014Z,12.10
2018-10-02T16:20:39.668Z,12.10
2018-10-02T16:22:42.555Z,12.10
2018-10-02T16:24:45.588Z,12.10
2018-10-02T16:26:49.905Z,12.10
2018-10-02T16:28:54.027Z,12.10
2018-10-02T16:30:57.696Z,12.20
2018-10-02T16:33:00.607Z,12.10
2018-10-02T16:35:04.254Z,12.20
2018-10-02T16:37:07.367Z,12.20
2018-10-02T16:39:11.021Z,12.20
2018-10-02T16:41:13.910Z,12.20
2018-10-02T16:43:17.102Z,12.20
2018-10-02T16:45:19.981Z,12.20
2018-10-02T16:47:22.862Z,12.20
2018-10-02T16:49:25.772Z,12.20
2018-10-02T16:51:28.630Z,12.20
2018-10-02T16:53:31.521Z,12.30
2018-10-02T16:55:35.317Z,12.30
2018-10-02T16:57:38.197Z,12.30
2018-10-02T16:59:41.090Z,12.30
2018-10-02T17:01:43.961Z,12.30
2018-10-02T17:03:46.861Z,12.30
2018-10-02T17:05:49.728Z,12.30
2018-10-02T17:07:52.620Z,12.30
2018-10-02T17:09:55.499Z,12.30
2018-10-02T17:11:59.885Z,12.30
2018-10-02T17:14:02.794Z,12.30
2018-10-02T17:16:05.672Z,12.30
2018-10-02T17:18:08.549Z,12.40
2018-10-02T17:20:11.534Z,12.40
2018-10-02T17:22:14.414Z,12.40
2018-10-02T17:24:17.282Z,12.40
2018-10-02T17:26:20.179Z,12.40
2018-10-02T17:28:23.932Z,12.40
2018-10-02T17:30:27.680Z,12.50
2018-10-02T17:32:30.598Z,12.50
2018-10-02T17:34:34.241Z,12.50
2018-10-02T17:36:37.141Z,12.50
2018-10-02T17:38:40.030Z,12.50
2018-10-02T17:40:43.013Z,12.50
2018-10-02T17:42:46.766Z,12.50
2018-10-02T17:44:50.492Z,12.50
2018-10-02T17:46:53.416Z,12.50
2018-10-02T17:48:57.801Z,12.60
2018-10-02T17:51:00.686Z,12.50
2018-10-02T17:53:03.561Z,12.60
2018-10-02T17:55:06.449Z,12.60
2018-10-02T17:57:10.140Z,12.60
2018-10-02T17:59:13.011Z,12.60
2018-10-02T18:01:15.995Z,12.60
2018-10-02T18:03:19.619Z,12.70
2018-10-02T18:05:23.659Z,12.70
2018-10-02T18:07:27.381Z,12.70
2018-10-02T18:09:30.974Z,12.70
2018-10-02T18:11:34.463Z,12.70
2018-10-02T18:13:37.368Z,12.70
2018-10-02T18:15:40.875Z,12.70
2018-10-02T18:17:43.686Z,12.70
2018-10-02T18:19:47.378Z,12.70
2018-10-02T18:21:51.018Z,12.70
2018-10-02T18:23:53.957Z,12.70
2018-10-02T18:25:56.964Z,12.80
2018-10-02T18:28:00.597Z,12.80
2018-10-02T18:30:03.486Z,12.80
2018-10-02T18:32:06.514Z,12.80
2018-10-02T18:34:10.157Z,12.80
2018-10-02T18:36:13.765Z,12.80
2018-10-02T18:38:16.664Z,12.80
2018-10-02T18:40:19.559Z,12.80
2018-10-02T18:42:22.491Z,12.90
2018-10-02T18:44:25.416Z,12.90
2018-10-02T18:46:28.309Z,12.90
2018-10-02T18:48:32.004Z,12.90
2018-10-02T18:50:36.921Z,12.90
2018-10-02T18:52:39.803Z,12.90
2018-10-02T18:54:42.683Z,12.90
2018-10-02T18:56:45.753Z,12.90
2018-10-02T18:58:48.556Z,12.90
2018-10-02T19:00:51.434Z,13.00
2018-10-02T19:02:54.345Z,13.00
2018-10-02T19:04:57.981Z,13.00
2018-10-02T19:07:00.857Z,13.00
2018-10-02T19:09:03.757Z,13.00
2018-10-02T19:11:06.697Z,13.00
2018-10-02T19:13:09.569Z,13.00
2018-10-02T19:15:12.475Z,13.00
2018-10-02T19:17:15.344Z,13.00
2018-10-02T19:19:18.214Z,13.10
2018-10-02T19:21:21.129Z,13.10
2018-10-02T19:23:24.017Z,13.10
2018-10-02T19:25:26.908Z,13.10
2018-10-02T19:27:29.837Z,13.10
2018-10-02T19:29:33.505Z,13.10
2018-10-02T19:31:54.009Z,13.10
2018-10-02T19:33:58.412Z,13.10
2018-10-02T19:36:02.063Z,13.10
2018-10-02T19:38:22.690Z,13.10
2018-10-02T19:40:25.598Z,13.10
2018-10-02T19:42:28.618Z,13.20
2018-10-02T19:44:32.250Z,13.10
2018-10-02T19:46:35.555Z,13.20
2018-10-02T19:48:38.430Z,13.20
2018-10-02T19:50:41.314Z,13.20
2018-10-02T19:52:44.226Z,13.20
2018-10-02T19:54:47.812Z,13.20
2018-10-02T19:56:51.469Z,13.20
2018-10-02T19:58:54.501Z,13.20
2018-10-02T20:00:58.479Z,13.20
2018-10-02T20:03:01.325Z,13.30
2018-10-02T20:05:04.235Z,13.30
2018-10-02T20:07:07.154Z,13.30
2018-10-02T20:09:10.809Z,13.30
2018-10-02T20:11:14.111Z,13.30
2018-10-02T20:13:17.093Z,13.30
2018-10-02T20:15:21.177Z,13.30
2018-10-02T20:17:24.086Z,13.30
2018-10-02T20:19:26.959Z,13.30
2018-10-02T20:21:29.939Z,13.40
2018-10-02T20:23:33.573Z,13.40
2018-10-02T20:25:37.221Z,13.40
2018-10-02T20:27:40.244Z,13.40
2018-10-02T20:29:43.257Z,13.40
2018-10-02T20:31:46.890Z,13.40
2018-10-02T20:33:49.770Z,13.40
2018-10-02T20:35:52.718Z,13.40
2018-10-02T20:37:56.450Z,13.40
2018-10-02T20:39:59.305Z,13.40
2018-10-02T20:42:02.213Z,13.40
2018-10-02T20:44:05.088Z,13.40
2018-10-02T20:46:07.987Z,13.40
2018-10-02T20:48:10.873Z,13.50
2018-10-02T20:50:13.785Z,13.50
2018-10-02T20:52:17.427Z,13.50
2018-10-02T20:54:21.170Z,13.40
2018-10-02T20:56:24.047Z,13.50
2018-10-02T20:58:26.932Z,13.50
2018-10-02T21:00:29.851Z,13.50
2018-10-02T21:02:32.752Z,13.50
2018-10-02T21:04:35.625Z,13.50
2018-10-02T21:06:38.550Z,13.50
2018-10-02T21:08:42.097Z,13.50
2018-10-02T21:10:45.690Z,13.50
2018-10-02T21:12:48.713Z,13.50
2018-10-02T21:14:51.593Z,13.50
2018-10-02T21:16:54.481Z,13.50
2018-10-02T21:18:57.394Z,13.50
2018-10-02T21:21:01.071Z,13.50
2018-10-02T21:23:03.932Z,13.50
2018-10-02T21:25:06.872Z,13.50
2018-10-02T21:27:10.907Z,13.60
2018-10-02T21:29:13.789Z,13.60
2018-10-02T21:31:16.915Z,13.60
2018-10-02T21:33:20.581Z,13.60
2018-10-02T21:35:23.497Z,13.60
2018-10-02T21:37:26.386Z,13.60
2018-10-02T21:39:30.037Z,13.60
2018-10-02T21:41:32.921Z,13.60
2018-10-02T21:43:35.824Z,13.60
2018-10-02T21:45:38.713Z,13.60
2018-10-02T21:47:41.589Z,13.60
2018-10-02T21:49:44.511Z,13.60
2018-10-02T21:51:47.495Z,13.60
2018-10-02T21:53:51.112Z,13.60
2018-10-02T21:55:54.017Z,13.60
2018-10-02T21:57:56.913Z,13.60
2018-10-02T21:59:59.792Z,13.70
2018-10-02T22:02:02.805Z,13.60
2018-10-02T22:04:06.458Z,13.70
2018-10-02T22:06:09.349Z,13.70
2018-10-02T22:08:12.257Z,13.70
2018-10-02T22:10:15.900Z,13.70
2018-10-02T22:12:19.617Z,13.70
2018-10-02T22:14:22.521Z,13.70
2018-10-02T22:16:25.412Z,13.70
2018-10-02T22:18:28.389Z,13.70
2018-10-02T22:20:31.407Z,13.70
2018-10-02T22:22:35.040Z,13.70
2018-10-02T22:24:37.912Z,13.70
2018-10-02T22:26:40.802Z,13.70
2018-10-02T22:28:43.713Z,13.70
2018-10-02T22:30:46.614Z,13.70
2018-10-02T22:32:50.289Z,13.70
2018-10-02T22:34:53.170Z,13.70
2018-10-02T22:36:56.053Z,13.70
2018-10-02T22:38:58.975Z,13.70
2018-10-02T22:41:02.715Z,13.70
2018-10-02T22:43:05.593Z,13.70
2018-10-02T22:45:08.594Z,13.70
2018-10-02T22:47:11.491Z,13.70
2018-10-02T22:49:14.356Z,13.70
2018-10-02T22:51:17.445Z,13.70
2018-10-02T22:53:20.317Z,13.70
2018-10-02T22:55:23.199Z,13.80
2018-10-02T22:57:26.111Z,13.80
2018-10-02T22:59:30.480Z,13.70
2018-10-02T23:01:34.202Z,13.70
2018-10-02T23:03:37.131Z,13.70
2018-10-02T23:05:40.783Z,13.70
2018-10-02T23:07:43.664Z,13.70
2018-10-02T23:09:46.574Z,13.70
2018-10-02T23:11:50.342Z,13.70
2018-10-02T23:13:53.293Z,13.70
2018-10-02T23:15:56.721Z,13.70
2018-10-02T23:17:59.624Z,13.80
2018-10-02T23:20:02.500Z,13.70
2018-10-02T23:22:06.162Z,13.70
2018-10-02T23:24:09.053Z,13.70
2018-10-02T23:26:11.929Z,13.70
2018-10-02T23:28:14.844Z,13.80
2018-10-02T23:30:18.505Z,13.70
2018-10-02T23:32:21.391Z,13.70
2018-10-02T23:34:24.337Z,13.80
2018-10-02T23:36:27.685Z,13.80
2018-10-02T23:38:30.566Z,13.80
2018-10-02T23:40:33.493Z,13.80
2018-10-02T23:42:36.420Z,13.80
2018-10-02T23:44:39.297Z,13.80
2018-10-02T23:46:42.218Z,13.80
2018-10-02T23:48:45.853Z,13.80
2018-10-02T23:50:48.812Z,13.80
2018-10-02T23:52:52.101Z,13.80
2018-10-02T23:54:54.989Z,13.80
2018-10-02T23:56:57.873Z,13.90
2018-10-02T23:59:00.778Z,13.80
